WXM80 ListenWXM80 Stop

You find our weather info also at:

UK Metoffice

WeatherCloud

Weather Underground

Northeastern Weather Network

AWEKAS

Citizen Weather Observer Program (CWOP)

HAMweather, WeatherForYou, PWS Weather


Weather Underground History page Text

Daily Summary for April 2, 2017 Units:  Metric    English   Both
« Previous Day
Next Day »
Daily Weekly Monthly Yearly Custom
  High: Low: Average:
Temperature: 17.2 °C 4.6 °C 9.8 °C
Dew Point: 4.6 °C 0.8 °C 2.5 °C
Humidity: 89 % 34 % 64 %
Wind Speed: 14.5 km/h 0 km/h 4.7 km/h
Wind Gust: 20.9 km/h - -
Wind:- - WNW
Pressure: 1019.2 hPa 1015.1 hPa -
Precipitation: 1.02 mm    
Historical Graphs
 
 
Tabular Data for April 2, 2017
Time Temperature Dew Point Pressure Wind Wind Speed Wind Gust Humidity Rainfall Rate (Hourly)
00:04 5.2 °C 3.1 °C 1015.8 hPa NW 0.8 km/h 1.9 km/h 86 % 0.25 mm
00:09 5.2 °C 3.1 °C 1015.8 hPa NW 0.3 km/h 1.9 km/h 86 % 0.25 mm
00:14 5.2 °C 3.1 °C 1015.8 hPa NW 1.1 km/h 3.7 km/h 86 % 0.25 mm
00:19 5.2 °C 3.2 °C 1016.1 hPa NNW 0.5 km/h 1.9 km/h 87 % 0.25 mm
00:24 5.2 °C 3.2 °C 1016.1 hPa NW 0.8 km/h 1.9 km/h 87 % 0.25 mm
00:29 5.1 °C 3.1 °C 1015.8 hPa Calm   3.7 km/h 87 % 0.25 mm
00:34 5.1 °C 3.1 °C 1016.1 hPa NW 0.2 km/h 1.9 km/h 87 % 0.25 mm
00:39 5.1 °C 3.1 °C 1016.1 hPa Calm     87 % 0.25 mm
00:44 5.1 °C 3.1 °C 1016.1 hPa Calm     87 % 0.25 mm
00:49 5.1 °C 3.1 °C 1016.1 hPa Calm     87 % 0.25 mm
00:54 5.1 °C 3.1 °C 1016.1 hPa Calm     87 % 0 mm
00:59 5 °C 3 °C 1015.8 hPa Calm     87 % 0 mm
01:04 5 °C 3 °C 1016.1 hPa Calm     87 % 0.25 mm
01:09 5 °C 3 °C 1015.8 hPa Calm     87 % 0.25 mm
01:14 5 °C 3 °C 1016.1 hPa NW 0.2 km/h 3.7 km/h 87 % 0.25 mm
01:19 5 °C 3 °C 1016.1 hPa NW 0.2 km/h 3.7 km/h 87 % 0.25 mm
01:25 5 °C 3 °C 1015.8 hPa NW 1 km/h 3.7 km/h 87 % 0.25 mm
01:30 5 °C 3 °C 1015.8 hPa Calm     87 % 0.25 mm
01:35 5 °C 3.2 °C 1016.1 hPa WNW 0.6 km/h 1.9 km/h 88 % 0.25 mm
01:40 5 °C 3 °C 1016.1 hPa WNW 1.4 km/h 5.6 km/h 87 % 0.25 mm
01:45 5 °C 3 °C 1016.1 hPa WNW 2.6 km/h 5.6 km/h 87 % 0.25 mm
01:50 5 °C 3 °C 1016.1 hPa West 4 km/h 7.4 km/h 87 % 0.25 mm
01:55 5.1 °C 3.1 °C 1015.8 hPa WNW 1.9 km/h 5.6 km/h 87 % 0.25 mm
02:00 5.1 °C 3.1 °C 1016.1 hPa NW 5 km/h 7.4 km/h 87 % 0.25 mm
02:05 5.1 °C 2.9 °C 1015.8 hPa WNW 3.9 km/h 7.4 km/h 86 % 0 mm
02:10 5.1 °C 2.9 °C 1015.8 hPa WNW 4 km/h 9.7 km/h 86 % 0 mm
02:15 5.2 °C 3 °C 1015.8 hPa WNW 2.9 km/h 5.6 km/h 86 % 0 mm
02:20 5.2 °C 3 °C 1015.8 hPa West 5.6 km/h 9.7 km/h 86 % 0.25 mm
02:25 5.2 °C 3 °C 1015.8 hPa WNW 1.6 km/h 3.2 km/h 86 % 0.25 mm
02:30 5.2 °C 3 °C 1015.8 hPa WNW 1.1 km/h 5.6 km/h 86 % 0.25 mm
02:35 5.2 °C 3 °C 1015.8 hPa WNW 1 km/h 5.6 km/h 86 % 0.25 mm
02:40 5.2 °C 3 °C 1015.8 hPa WNW 4.8 km/h 5.6 km/h 86 % 0.25 mm
02:45 5.2 °C 3 °C 1015.8 hPa WNW 2.7 km/h 5.6 km/h 86 % 0.25 mm
02:50 5.2 °C 3 °C 1015.8 hPa WNW 1.9 km/h 5.6 km/h 86 % 0.25 mm
02:55 5.2 °C 3 °C 1015.8 hPa NW 1.1 km/h 5.6 km/h 86 % 0.25 mm
03:00 5.2 °C 3 °C 1015.8 hPa WNW 2.6 km/h 5.6 km/h 86 % 0.25 mm
03:05 5.2 °C 3.2 °C 1016.1 hPa WNW 2.6 km/h 5.6 km/h 87 % 0.25 mm
03:10 5.2 °C 3 °C 1015.8 hPa WNW 3.4 km/h 6.4 km/h 86 % 0.25 mm
03:15 5.2 °C 3.2 °C 1015.8 hPa WNW 4.2 km/h 4.8 km/h 87 % 0.25 mm
03:20 5.2 °C 3 °C 1015.8 hPa West 2.4 km/h 5.6 km/h 86 % 0 mm
03:25 5.2 °C 3.2 °C 1015.8 hPa West 1.3 km/h 4.8 km/h 87 % 0 mm
03:30 5.1 °C 3.1 °C 1015.8 hPa West 0.8 km/h 5.6 km/h 87 % 0 mm
03:35 5.1 °C 3.1 °C 1016.1 hPa WNW 0.5 km/h 3.7 km/h 87 % 0 mm
03:40 5.1 °C 3.1 °C 1016.1 hPa WNW 1.9 km/h 8 km/h 87 % 0 mm
03:45 5.1 °C 3.1 °C 1016.1 hPa WNW 0.8 km/h 5.6 km/h 87 % 0 mm
03:50 5.1 °C 3.1 °C 1016.1 hPa WNW 0.3 km/h 3.7 km/h 87 % 0 mm
03:55 5.1 °C 3.1 °C 1015.8 hPa WNW 0.3 km/h 1.9 km/h 87 % 0 mm
04:00 5.1 °C 3.1 °C 1015.8 hPa WNW 2.7 km/h 5.6 km/h 87 % 0 mm
04:06 5.1 °C 3.1 °C 1016.1 hPa WNW 1 km/h 5.6 km/h 87 % 0 mm
04:11 5.1 °C 3.1 °C 1016.1 hPa WNW 2.6 km/h 9.3 km/h 87 % 0 mm
04:16 5 °C 3 °C 1016.1 hPa WNW 2.9 km/h 5.6 km/h 87 % 0 mm
04:21 5 °C 3 °C 1016.1 hPa West 0.3 km/h 5.6 km/h 87 % 0 mm
04:26 4.9 °C 2.9 °C 1016.5 hPa Calm   3.7 km/h 87 % 0 mm
04:31 4.9 °C 2.9 °C 1016.5 hPa WNW 0.3 km/h 3.7 km/h 87 % 0 mm
04:36 4.8 °C 2.8 °C 1016.5 hPa West 1.6 km/h 5.6 km/h 87 % 0 mm
04:41 4.8 °C 2.8 °C 1016.5 hPa WNW 2.7 km/h 6.4 km/h 87 % 0 mm
04:46 4.7 °C 2.7 °C 1016.5 hPa West 1.4 km/h 5.6 km/h 87 % 0 mm
04:51 4.7 °C 2.7 °C 1016.5 hPa West 3.5 km/h 5.6 km/h 87 % 0 mm
04:56 4.7 °C 2.8 °C 1016.5 hPa WNW 2.7 km/h 8 km/h 88 % 0 mm
05:01 4.7 °C 2.8 °C 1016.8 hPa West 3.9 km/h 6.4 km/h 88 % 0 mm
05:06 4.6 °C 2.8 °C 1016.8 hPa West 2.9 km/h 9.3 km/h 88 % 0 mm
05:11 4.7 °C 3 °C 1016.8 hPa West 2.3 km/h 5.6 km/h 89 % 0 mm
05:16 4.7 °C 3 °C 1016.8 hPa WNW 0.8 km/h 3.7 km/h 89 % 0.25 mm
05:21 4.7 °C 3 °C 1017.2 hPa WNW 3.4 km/h 5.6 km/h 89 % 0.25 mm
05:26 4.7 °C 3 °C 1016.8 hPa WSW 4.3 km/h 6.4 km/h 89 % 0.25 mm
05:31 4.7 °C 3.1 °C 1017.2 hPa West 2.9 km/h 5.6 km/h 89 % 0.25 mm
05:36 4.7 °C 3.1 °C 1017.2 hPa WNW 4.8 km/h 9.3 km/h 89 % 0.25 mm
05:41 4.8 °C 3.1 °C 1017.2 hPa West 2.1 km/h 5.6 km/h 89 % 0.25 mm
05:46 4.8 °C 3.1 °C 1017.2 hPa West 0.8 km/h 3.7 km/h 89 % 0.25 mm
05:51 4.8 °C 2.9 °C 1017.2 hPa WNW 1.8 km/h 5.6 km/h 88 % 0.25 mm
05:56 4.8 °C 3 °C 1017.2 hPa West 5.6 km/h 11.3 km/h 88 % 0.25 mm
06:01 4.8 °C 3 °C 1017.5 hPa West 4.2 km/h 7.4 km/h 88 % 0.25 mm
06:06 4.8 °C 2.8 °C 1017.5 hPa WNW 4.3 km/h 7.4 km/h 87 % 0.25 mm
06:07 4.8 °C 2.8 °C 1017.5 hPa WNW 2.6 km/h 8 km/h 87 % 0.25 mm
06:12 4.8 °C 2.8 °C 1017.5 hPa West 5.6 km/h 13 km/h 87 % 0.25 mm
06:17 4.8 °C 2.7 °C 1017.8 hPa WNW 4.8 km/h 11.3 km/h 86 % 0 mm
06:22 4.8 °C 2.6 °C 1017.8 hPa WNW 7.4 km/h 14.8 km/h 86 % 0 mm
06:27 4.7 °C 2.6 °C 1017.8 hPa NW 4.2 km/h 9.3 km/h 86 % 0 mm
06:33 4.7 °C 2.5 °C 1018.2 hPa WNW 4.7 km/h 11.1 km/h 86 % 0 mm
06:38 4.6 °C 2.4 °C 1018.2 hPa WNW 8.9 km/h 14.5 km/h 86 % 0 mm
06:43 4.6 °C 2.3 °C 1018.2 hPa West 6.6 km/h 9.3 km/h 85 % 0 mm
06:48 4.6 °C 2.3 °C 1018.5 hPa West 9.3 km/h 14.8 km/h 85 % 0 mm
06:53 4.6 °C 2.1 °C 1018.5 hPa WNW 9.2 km/h 18.5 km/h 84 % 0 mm
06:58 4.6 °C 2.1 °C 1018.5 hPa WNW 7.4 km/h 9.3 km/h 84 % 0 mm
07:03 4.6 °C 1.9 °C 1018.5 hPa WNW 7.7 km/h 14.8 km/h 83 % 0 mm
07:08 4.7 °C 2 °C 1018.8 hPa NW 3.2 km/h 7.4 km/h 83 % 0 mm
07:13 4.7 °C 2.1 °C 1018.8 hPa WNW 7.1 km/h 9.7 km/h 83 % 0 mm
07:18 4.8 °C 2.1 °C 1018.8 hPa WNW 3.9 km/h 9.7 km/h 83 % 0 mm
07:23 4.8 °C 2.2 °C 1018.8 hPa WNW 7.4 km/h 13 km/h 83 % 0 mm
07:28 4.8 °C 2.2 °C 1018.8 hPa NNW 7.6 km/h 13 km/h 83 % 0 mm
07:33 4.9 °C 2.2 °C 1018.8 hPa WNW 3.9 km/h 5.6 km/h 83 % 0 mm
07:38 4.9 °C 2.3 °C 1018.8 hPa NNW 4.5 km/h 9.3 km/h 83 % 0 mm
07:43 5 °C 2.3 °C 1019.2 hPa WNW 3.1 km/h 11.1 km/h 83 % 0 mm
07:48 5.1 °C 2.4 °C 1018.8 hPa NW 6.1 km/h 7.4 km/h 83 % 0 mm
07:53 5.2 °C 2.5 °C 1018.8 hPa NW 5.1 km/h 6.4 km/h 83 % 0 mm
07:58 5.3 °C 2.6 °C 1018.8 hPa WNW 3.1 km/h 8 km/h 83 % 0 mm
08:03 5.4 °C 2.8 °C 1018.8 hPa NW 3.9 km/h 9.3 km/h 83 % 0 mm
08:08 5.6 °C 2.9 °C 1018.8 hPa NW 7.1 km/h 8 km/h 83 % 0 mm
08:13 5.8 °C 3.1 °C 1018.8 hPa NW 3.7 km/h 7.4 km/h 83 % 0 mm
08:18 5.9 °C 3.1 °C 1018.8 hPa NW 3.4 km/h 5.6 km/h 82 % 0 mm
08:23 6.1 °C 3.2 °C 1018.8 hPa NW 7.7 km/h 9.3 km/h 82 % 0 mm
08:28 6.2 °C 3.2 °C 1018.8 hPa WNW 6.6 km/h 12.9 km/h 81 % 0 mm
08:29 6.3 °C 3.1 °C 1019.2 hPa WNW 7.1 km/h 13 km/h 80 % 0 mm
08:34 6.3 °C 3.1 °C 1018.8 hPa NW 6.1 km/h 13 km/h 80 % 0 mm
08:39 6.4 °C 3.2 °C 1018.8 hPa WNW 5.3 km/h 7.4 km/h 80 % 0 mm
08:44 6.4 °C 3.2 °C 1019.2 hPa NW 3.2 km/h 7.4 km/h 80 % 0 mm
08:50 6.5 °C 3.3 °C 1018.8 hPa WNW 0.6 km/h 5.6 km/h 80 % 0 mm
08:55 6.7 °C 3.5 °C 1018.8 hPa West 8.4 km/h 9.3 km/h 80 % 0 mm
09:00 6.9 °C 3.6 °C 1018.8 hPa WNW 3.1 km/h 7.4 km/h 79 % 0 mm
09:05 7.2 °C 3.8 °C 1018.8 hPa WNW 3.4 km/h 6.4 km/h 79 % 0 mm
09:10 7.3 °C 3.7 °C 1018.8 hPa NNW 3.2 km/h 5.6 km/h 78 % 0 mm
09:15 7.4 °C 3.7 °C 1018.8 hPa WNW 9.7 km/h 13 km/h 77 % 0 mm
09:20 7.6 °C 3.8 °C 1018.8 hPa WNW 6.9 km/h 9.3 km/h 77 % 0 mm
09:25 7.6 °C 3.4 °C 1018.8 hPa WNW 9.5 km/h 16.7 km/h 75 % 0 mm
09:30 7.6 °C 3.3 °C 1018.8 hPa NW 5.6 km/h 13 km/h 74 % 0 mm
09:35 7.8 °C 3.6 °C 1018.8 hPa WNW 6 km/h 16.1 km/h 75 % 0 mm
09:40 7.9 °C 3.6 °C 1018.8 hPa NNW 6.1 km/h 11.1 km/h 74 % 0 mm
09:45 8.1 °C 3.4 °C 1018.8 hPa NW 8.4 km/h 14.8 km/h 72 % 0 mm
09:50 8.2 °C 3.4 °C 1018.8 hPa West 4.7 km/h 7.4 km/h 72 % 0 mm
09:55 8.4 °C 3.7 °C 1018.8 hPa NNW 4 km/h 6.4 km/h 72 % 0 mm
10:00 8.8 °C 4 °C 1018.8 hPa NW 2.9 km/h 6.4 km/h 72 % 0 mm
10:05 9.2 °C 4 °C 1019.2 hPa West 6.4 km/h 9.7 km/h 70 % 0 mm
10:10 9.3 °C 3.4 °C 1019.2 hPa WNW 8 km/h 11.3 km/h 67 % 0 mm
10:15 9.4 °C 3.8 °C 1019.2 hPa WNW 5.1 km/h 7.4 km/h 68 % 0 mm
10:20 9.5 °C 3.7 °C 1019.2 hPa West 5 km/h 11.1 km/h 67 % 0 mm
10:25 9.7 °C 3.9 °C 1019.2 hPa WSW 3.2 km/h 5.6 km/h 67 % 0 mm
10:31 9.7 °C 3.4 °C 1018.8 hPa SW 7.9 km/h 14.8 km/h 65 % 0 mm
10:36 9.7 °C 3.4 °C 1019.2 hPa West 6 km/h 11.1 km/h 65 % 0 mm
10:41 9.9 °C 4.3 °C 1019.2 hPa West 5.5 km/h 9.3 km/h 68 % 0 mm
10:46 10.2 °C 3.9 °C 1018.8 hPa West 7.2 km/h 11.1 km/h 65 % 0 mm
10:51 10.3 °C 3.6 °C 1018.8 hPa NW 10.6 km/h 14.8 km/h 63 % 0 mm
10:56 10.3 °C 3.4 °C 1018.8 hPa West 7.9 km/h 18.5 km/h 62 % 0 mm
11:01 10.5 °C 3.5 °C 1018.8 hPa WNW 5 km/h 9.7 km/h 62 % 0 mm
11:06 10.7 °C 3.4 °C 1018.8 hPa West 8.7 km/h 13 km/h 61 % 0 mm
11:11 10.7 °C 3.4 °C 1018.8 hPa WNW 8.9 km/h 14.8 km/h 61 % 0 mm
11:16 10.8 °C 3.3 °C 1018.8 hPa WNW 8.7 km/h 13 km/h 60 % 0 mm
11:17 10.8 °C 3.4 °C 1018.8 hPa WNW 8.9 km/h 14.5 km/h 60 % 0 mm
11:22 11 °C 4 °C 1018.8 hPa West 4.7 km/h 9.3 km/h 62 % 0 mm
11:27 11.6 °C 4.6 °C 1018.5 hPa WSW 6.1 km/h 9.3 km/h 62 % 0 mm
11:32 11.8 °C 4.3 °C 1018.5 hPa West 5.8 km/h 11.1 km/h 60 % 0 mm
11:37 12.2 °C 4.2 °C 1018.5 hPa West 5.5 km/h 9.3 km/h 58 % 0 mm
11:42 12.3 °C 3.8 °C 1018.5 hPa SSW 9.2 km/h 16.7 km/h 56 % 0 mm
11:47 12.6 °C 3.5 °C 1018.5 hPa West 7.6 km/h 14.8 km/h 54 % 0 mm
11:52 12.8 °C 3.9 °C 1018.5 hPa WSW 7.7 km/h 13 km/h 55 % 0 mm
11:57 13 °C 3.9 °C 1018.5 hPa WSW 5.3 km/h 9.3 km/h 54 % 0 mm
12:02 12.9 °C 3.3 °C 1018.5 hPa West 9.3 km/h 18.5 km/h 52 % 0 mm
12:07 12.8 °C 3.5 °C 1018.2 hPa WSW 8 km/h 19.3 km/h 53 % 0 mm
12:12 12.9 °C 3.6 °C 1018.2 hPa SW 14.5 km/h 20.9 km/h 53 % 0 mm
12:17 13 °C 3.9 °C 1018.2 hPa SW 9.7 km/h 16.1 km/h 54 % 0 mm
12:22 13.3 °C 3.6 °C 1017.8 hPa WSW 11.3 km/h 20.9 km/h 52 % 0 mm
12:27 13.4 °C 3.8 °C 1017.8 hPa WSW 8 km/h 16.1 km/h 52 % 0 mm
12:32 13.8 °C 3.8 °C 1017.8 hPa SSW 3.4 km/h 13 km/h 51 % 0 mm
12:37 14 °C 4 °C 1017.8 hPa WSW 8.4 km/h 11.3 km/h 51 % 0 mm
12:42 14.2 °C 3.3 °C 1017.8 hPa WSW 10.8 km/h 16.7 km/h 48 % 0 mm
12:47 14.4 °C 2.7 °C 1017.5 hPa WNW 10.8 km/h 16.7 km/h 45 % 0 mm
12:52 14.3 °C 3.4 °C 1017.8 hPa WSW 4 km/h 16.7 km/h 48 % 0 mm
12:57 14.4 °C 3.2 °C 1017.5 hPa WSW 10.8 km/h 12.9 km/h 47 % 0 mm
13:02 14.4 °C 3.5 °C 1017.5 hPa WSW 11.3 km/h 19.3 km/h 48 % 0 mm
13:07 14.3 °C 3.2 °C 1017.5 hPa WSW 9.7 km/h 16.1 km/h 47 % 0 mm
13:12 14.5 °C 3.3 °C 1017.2 hPa SW 9.7 km/h 19.3 km/h 47 % 0 mm
13:17 14.7 °C 3.5 °C 1017.2 hPa WSW 4.8 km/h 12.9 km/h 47 % 0 mm
13:22 14.8 °C 2.7 °C 1017.2 hPa WSW 9.7 km/h 14.5 km/h 44 % 0 mm
13:27 15.1 °C 3.2 °C 1017.2 hPa WSW 8 km/h 14.5 km/h 45 % 0 mm
13:32 15.3 °C 2.4 °C 1017.2 hPa West 4.8 km/h 14.5 km/h 42 % 0 mm
13:37 15.4 °C 1.5 °C 1016.8 hPa WSW 9.7 km/h 19.3 km/h 39 % 0 mm
13:42 15.6 °C 2.3 °C 1016.8 hPa WNW 5.6 km/h 13 km/h 41 % 0 mm
13:47 15.7 °C 2.2 °C 1017.2 hPa West 1.9 km/h 13 km/h 40 % 0 mm
13:52 15.9 °C 2.7 °C 1017.2 hPa SW 12.2 km/h 12.9 km/h 41 % 0 mm
13:57 16 °C 1.7 °C 1016.8 hPa West 9.2 km/h 9.3 km/h 38 % 0 mm
14:02 16.1 °C 2.1 °C 1016.5 hPa SW 8.4 km/h 14.5 km/h 39 % 0 mm
14:07 16.2 °C 2.9 °C 1016.5 hPa West 6.9 km/h 11.1 km/h 41 % 0 mm
14:12 16.3 °C 2.3 °C 1016.5 hPa WSW 8.7 km/h 14.8 km/h 39 % 0 mm
14:13 16.3 °C 1.9 °C 1016.5 hPa West 10.6 km/h 14.8 km/h 38 % 0 mm
14:18 15.9 °C 1.6 °C 1016.5 hPa West 4 km/h 13 km/h 38 % 0 mm
14:23 16.1 °C 3.5 °C 1016.5 hPa West 1.6 km/h 7.4 km/h 43 % 0 mm
14:28 16.3 °C 2.7 °C 1016.5 hPa West 6.6 km/h 18.5 km/h 40 % 0 mm
14:33 16.4 °C 1.3 °C 1016.5 hPa WSW 10.8 km/h 16.7 km/h 36 % 0 mm
14:38 16.2 °C 1.5 °C 1016.5 hPa WSW 10.1 km/h 14.8 km/h 37 % 0 mm
14:43 16.3 °C 2.3 °C 1016.5 hPa SW 9.7 km/h 14.5 km/h 39 % 0 mm
14:48 16.4 °C 1.7 °C 1016.5 hPa NW 5.3 km/h 14.8 km/h 37 % 0 mm
14:53 16.4 °C 1.7 °C 1016.1 hPa NW 6.1 km/h 14.5 km/h 37 % 0 mm
14:58 16.4 °C 1.3 °C 1016.1 hPa NW 10.3 km/h 14.8 km/h 36 % 0 mm
15:03 16.5 °C 1.4 °C 1016.1 hPa SW 8 km/h 11.1 km/h 36 % 0 mm
15:08 16.6 °C 1.4 °C 1015.8 hPa West 10.6 km/h 18.5 km/h 36 % 0 mm
15:13 16.7 °C 1.2 °C 1015.8 hPa West 11.9 km/h 18.5 km/h 35 % 0 mm
15:18 16.7 °C 1.2 °C 1015.8 hPa WNW 6.1 km/h 11.1 km/h 35 % 0 mm
15:23 16.8 °C 1.6 °C 1015.8 hPa WNW 6.6 km/h 13 km/h 36 % 0 mm
15:28 16.8 °C 0.8 °C 1015.5 hPa WNW 7.6 km/h 13 km/h 34 % 0 mm
15:33 16.8 °C 1.2 °C 1015.5 hPa West 8 km/h 14.8 km/h 35 % 0 mm
15:38 16.9 °C 2.1 °C 1015.5 hPa West 3.2 km/h 13 km/h 37 % 0 mm
15:44 17.1 °C 1.9 °C 1015.5 hPa SW 9.3 km/h 14.8 km/h 36 % 0 mm
15:49 17.2 °C 1.6 °C 1015.5 hPa West 6.3 km/h 12.9 km/h 35 % 0 mm
15:54 17.2 °C 1.6 °C 1015.5 hPa West 7.6 km/h 13 km/h 35 % 0 mm
15:59 17.2 °C 1.2 °C 1015.5 hPa NW 7.1 km/h 14.5 km/h 34 % 0 mm
16:04 17.1 °C 1.8 °C 1015.5 hPa West 7.1 km/h 16.1 km/h 36 % 0.25 mm
16:09 17 °C 1.4 °C 1015.5 hPa WSW 9.3 km/h 18.5 km/h 35 % 0.25 mm
16:14 17.1 °C 1.4 °C 1015.5 hPa West 4.2 km/h 7.4 km/h 35 % 0.25 mm
16:19 17 °C 1 °C 1015.5 hPa WSW 10.3 km/h 14.8 km/h 34 % 0.25 mm
16:24 16.8 °C 0.8 °C 1015.5 hPa West 8.7 km/h 13 km/h 34 % 0.25 mm
16:29 16.7 °C 0.8 °C 1015.5 hPa West 5 km/h 11.1 km/h 34 % 0.25 mm
16:34 16.7 °C 1.1 °C 1015.1 hPa NW 1.6 km/h 3.2 km/h 35 % 0.25 mm
16:39 16.7 °C 1.6 °C 1015.1 hPa WSW 2.4 km/h 6.4 km/h 36 % 0.25 mm
16:44 16.8 °C 1.3 °C 1015.1 hPa West 8.9 km/h 14.5 km/h 35 % 0.25 mm
16:49 16.8 °C 1.6 °C 1015.5 hPa WNW 6.9 km/h 9.3 km/h 36 % 0.25 mm
16:54 16.7 °C 1.6 °C 1015.5 hPa NW 7.1 km/h 13 km/h 36 % 0.25 mm
16:59 16.4 °C 1.7 °C 1015.5 hPa NW 7.7 km/h 18.5 km/h 37 % 0.25 mm
17:04 16.2 °C 1.5 °C 1015.5 hPa West 3.4 km/h 7.4 km/h 37 % 0 mm
17:09 16.1 °C 1.3 °C 1015.5 hPa NNW 7.2 km/h 9.3 km/h 37 % 0 mm
17:14 15.9 °C 1.6 °C 1015.5 hPa NW 7.9 km/h 11.3 km/h 38 % 0 mm
17:19 15.7 °C 1.1 °C 1015.5 hPa WNW 8.4 km/h 16.7 km/h 37 % 0 mm
17:25 15.5 °C 1.2 °C 1015.5 hPa NNW 10 km/h 16.1 km/h 38 % 0 mm
17:30 15.3 °C 1.4 °C 1015.5 hPa NW 8.7 km/h 13 km/h 39 % 0 mm
17:35 15.1 °C 1.9 °C 1015.5 hPa NNW 7.6 km/h 11.3 km/h 41 % 0 mm
17:40 14.7 °C 2.3 °C 1015.5 hPa NW 5.1 km/h 9.3 km/h 43 % 0 mm
17:45 14.4 °C 2.7 °C 1015.5 hPa NE 3.9 km/h 7.4 km/h 45 % 0 mm
17:50 14 °C 2.6 °C 1015.5 hPa NW 4.8 km/h 11.1 km/h 46 % 0 mm
17:55 13.7 °C 2.3 °C 1015.5 hPa NW 7.7 km/h 7.7 km/h 46 % 0 mm
18:00 13.5 °C 2.1 °C 1015.8 hPa NNW 6.1 km/h 7.4 km/h 46 % 0 mm
18:05 13.3 °C 2.2 °C 1015.8 hPa NNW 2.1 km/h 7.4 km/h 47 % 0 mm
18:10 13.2 °C 2.1 °C 1015.8 hPa NW 4 km/h 5.6 km/h 47 % 0 mm
18:15 13.1 °C 2.1 °C 1015.8 hPa NNW 2.6 km/h 6.4 km/h 47 % 0 mm
18:20 13 °C 2.2 °C 1015.8 hPa NNW 10.3 km/h 16.7 km/h 48 % 0 mm
18:25 12.9 °C 1.8 °C 1015.8 hPa NW 5.8 km/h 14.8 km/h 47 % 0 mm
18:30 12.8 °C 1.4 °C 1015.8 hPa NNW 6.6 km/h 14.8 km/h 46 % 0 mm
18:35 12.7 °C 1.3 °C 1015.8 hPa NW 4.8 km/h 9.3 km/h 46 % 0 mm
18:40 12.7 °C 1.3 °C 1015.8 hPa WNW 4.7 km/h 11.1 km/h 46 % 0 mm
18:45 12.6 °C 1.3 °C 1015.8 hPa WNW 4.2 km/h 9.3 km/h 46 % 0 mm
18:50 12.6 °C 1.6 °C 1015.5 hPa WNW 4 km/h 9.7 km/h 47 % 0 mm
18:55 12.5 °C 1.5 °C 1015.8 hPa WNW 2.4 km/h 5.6 km/h 47 % 0 mm
19:00 12.4 °C 1.1 °C 1015.8 hPa NW 7.9 km/h 14.8 km/h 46 % 0 mm
19:05 12.4 °C 1.1 °C 1015.8 hPa NW 6.3 km/h 13 km/h 46 % 0 mm
19:10 12.4 °C 0.8 °C 1015.8 hPa WNW 4.2 km/h 18.5 km/h 45 % 0 mm
19:15 12.4 °C 1.1 °C 1015.8 hPa WNW 3.1 km/h 13 km/h 46 % 0 mm
19:20 12.3 °C 1.6 °C 1015.8 hPa NNW 3.2 km/h 9.3 km/h 48 % 0 mm
19:25 12.2 °C 1.8 °C 1015.8 hPa WNW 3.2 km/h 7.4 km/h 49 % 0 mm
19:30 12.1 °C 1.4 °C 1015.8 hPa West 5.3 km/h 7.4 km/h 48 % 0 mm
19:35 11.9 °C 0.9 °C 1015.8 hPa WNW 2.6 km/h 9.3 km/h 47 % 0 mm
19:40 11.9 °C 1.2 °C 1015.8 hPa WNW 2.4 km/h 5.6 km/h 48 % 0 mm
19:45 11.8 °C 1.4 °C 1015.8 hPa West 3.9 km/h 7.4 km/h 49 % 0 mm
19:50 11.7 °C 1.6 °C 1016.1 hPa West 0.2 km/h 3.7 km/h 50 % 0 mm
19:55 11.7 °C 1.6 °C 1015.8 hPa West 1.8 km/h 5.6 km/h 50 % 0 mm
20:00 11.6 °C 1.8 °C 1015.8 hPa West 1.4 km/h 3.2 km/h 51 % 0 mm
20:05 11.5 °C 1.7 °C 1015.8 hPa West 1.1 km/h 3.7 km/h 51 % 0 mm
20:10 11.3 °C 1.6 °C 1016.1 hPa West 1.8 km/h 5.6 km/h 51 % 0 mm
20:15 11.2 °C 1.7 °C 1016.1 hPa Calm   1.9 km/h 52 % 0 mm
20:20 11.1 °C 1.6 °C 1016.1 hPa West 0.6 km/h 3.7 km/h 52 % 0 mm
20:25 11 °C 1.5 °C 1016.5 hPa West 3.4 km/h 5.6 km/h 52 % 0 mm
20:31 10.8 °C 1.6 °C 1016.1 hPa West 0.3 km/h 5.6 km/h 53 % 0 mm
20:36 10.7 °C 1.5 °C 1016.1 hPa West 0.8 km/h 1.9 km/h 53 % 0 mm
20:41 10.6 °C 1.7 °C 1016.5 hPa West 0.6 km/h 1.9 km/h 54 % 0 mm
20:46 10.5 °C 1.6 °C 1016.5 hPa West 1.6 km/h 1.9 km/h 54 % 0 mm
20:51 10.3 °C 1.7 °C 1016.5 hPa West 0.8 km/h 3.7 km/h 55 % 0 mm
20:56 10.2 °C 1.8 °C 1016.5 hPa West 0.5 km/h 3.7 km/h 56 % 0 mm
21:01 10.1 °C 1.7 °C 1016.5 hPa West 1.3 km/h 3.7 km/h 56 % 0 mm
21:06 9.9 °C 1.6 °C 1016.5 hPa West 2.1 km/h 3.7 km/h 56 % 0 mm
21:11 9.8 °C 1.4 °C 1016.8 hPa West 3.4 km/h 5.6 km/h 56 % 0 mm
21:16 9.7 °C 1.3 °C 1016.8 hPa West 2.6 km/h 5.6 km/h 56 % 0 mm
21:21 9.6 °C 1.5 °C 1016.8 hPa West 2.7 km/h 5.6 km/h 57 % 0 mm
21:26 9.6 °C 1.7 °C 1016.8 hPa West 0.5 km/h 3.2 km/h 58 % 0 mm
21:31 9.4 °C 1.6 °C 1016.8 hPa West 2.1 km/h 5.6 km/h 58 % 0 mm
21:36 9.3 °C 1.7 °C 1016.8 hPa Calm   1.9 km/h 59 % 0 mm
21:41 9.2 °C 1.1 °C 1017.2 hPa West 1.4 km/h 3.7 km/h 57 % 0 mm
21:46 9.2 °C 1.1 °C 1017.2 hPa West 2.4 km/h 5.6 km/h 57 % 0 mm
21:51 9.1 °C 1.3 °C 1017.2 hPa West 1.8 km/h 5.6 km/h 58 % 0 mm
21:56 9.1 °C 1.2 °C 1017.2 hPa WSW 5.1 km/h 8 km/h 58 % 0 mm
22:01 9.1 °C 1.2 °C 1017.2 hPa WSW 2.1 km/h 3.7 km/h 58 % 0 mm
22:06 9.1 °C 1.2 °C 1017.2 hPa WSW 6.1 km/h 11.1 km/h 58 % 0 mm
22:11 9.2 °C 1.1 °C 1017.2 hPa West 4.2 km/h 7.4 km/h 57 % 0 mm
22:16 9.3 °C 1 °C 1017.2 hPa West 3.9 km/h 7.4 km/h 56 % 0 mm
22:21 9.5 °C 1.2 °C 1017.2 hPa West 3.7 km/h 11.3 km/h 56 % 0 mm
22:26 9.7 °C 1.3 °C 1017.2 hPa WSW 4.3 km/h 5.6 km/h 56 % 0 mm
22:31 9.8 °C 1.4 °C 1017.2 hPa West 3.4 km/h 6.4 km/h 56 % 0 mm
22:36 10 °C 1.4 °C 1017.2 hPa WNW 7.7 km/h 13 km/h 55 % 0 mm
22:41 10.2 °C 1.3 °C 1017.2 hPa WNW 4.2 km/h 13 km/h 54 % 0 mm
22:46 10.4 °C 1.3 °C 1017.2 hPa WNW 5 km/h 9.3 km/h 53 % 0 mm
22:51 10.7 °C 1.2 °C 1017.2 hPa WNW 7.4 km/h 11.1 km/h 52 % 0 mm
22:56 10.8 °C 1.1 °C 1017.5 hPa West 4 km/h 7.4 km/h 51 % 0 mm
23:01 10.9 °C 1.2 °C 1017.5 hPa NW 8.4 km/h 11.1 km/h 51 % 0 mm
23:06 11 °C 2.3 °C 1017.5 hPa North 8.2 km/h 14.8 km/h 55 % 0 mm
23:11 10.9 °C 2.7 °C 1017.8 hPa North 2.9 km/h 7.4 km/h 57 % 0 mm
23:16 10.7 °C 2.6 °C 1017.5 hPa NW 3.1 km/h 4.8 km/h 57 % 0 mm
23:21 10.5 °C 2.3 °C 1017.5 hPa West 5 km/h 6.4 km/h 57 % 0 mm
23:26 10.2 °C 2.3 °C 1017.5 hPa West 3.2 km/h 5.6 km/h 58 % 0 mm
23:31 10 °C 2.1 °C 1017.8 hPa West 2.3 km/h 3.7 km/h 58 % 0 mm
23:36 9.8 °C 2.2 °C 1017.5 hPa West 1.8 km/h 5.6 km/h 59 % 0 mm
23:41 9.6 °C 2.2 °C 1017.8 hPa West 1 km/h 3.7 km/h 60 % 0 mm
23:46 9.4 °C 2.1 °C 1017.8 hPa West 1.6 km/h 3.7 km/h 60 % 0 mm
23:51 9.3 °C 2.1 °C 1017.5 hPa Calm     61 % 0 mm
23:56 9.1 °C 2.2 °C 1017.8 hPa Calm     62 % 0 mm
Crab Meadow Weather
Compliments of Weather Underground - 3 mb

Script developed by  Jim McMurry - jmcmurry@mwt.net Adapted for the template by  Wim van der Kuil - Leuven-Template.eu

Weather Terms: Heat Index - The apparent temperature that describes the combined effect of high temperatures and high levels of humidity, which reduces the body's ability to cool itself.